Time;durP1;ratioP1;P1;durP2;ratioP2;P2;SDS_P1;SDS_P2;PMS_P1;PMS_P2;Temp;Humidity;BMP_temperature;BMP_pressure;BME280_temperature;BME280_humidity;BME280_pressure;Samples;Min_cycle;Max_cycle;Signal;HPM_P1;HPM_P2
2021/12/27 00:00:59;;;;;;;27.05;18.17;;;0.00;99.90;;;;;;4991270;28;20060;-71
2021/12/27 00:03:25;;;;;;;27.13;17.80;;;0.10;99.90;;;;;;4995078;28;20034;-71
2021/12/27 00:05:51;;;;;;;25.40;17.83;;;0.00;99.90;;;;;;5007601;28;20041;-71
2021/12/27 00:08:16;;;;;;;26.20;17.65;;;0.00;99.90;;;;;;4995869;28;20181;-71
2021/12/27 00:10:42;;;;;;;27.30;18.00;;;0.10;99.90;;;;;;4976899;28;20117;-71
2021/12/27 00:13:08;;;;;;;31.02;18.48;;;0.10;99.90;;;;;;4990803;28;20045;-71
2021/12/27 00:15:34;;;;;;;27.60;17.92;;;0.10;99.90;;;;;;4992972;28;20521;-71
2021/12/27 00:18:00;;;;;;;25.52;17.70;;;0.10;99.90;;;;;;4995151;28;20129;-71
2021/12/27 00:20:27;;;;;;;28.83;18.60;;;0.10;99.90;;;;;;4976017;28;20033;-71
2021/12/27 00:22:53;;;;;;;26.80;18.33;;;0.10;99.90;;;;;;4994419;28;20121;-71
2021/12/27 00:25:20;;;;;;;26.95;18.00;;;0.10;99.90;;;;;;4990193;28;20699;-71
2021/12/27 00:27:46;;;;;;;27.30;18.13;;;0.10;99.90;;;;;;4992995;28;21849;-71
2021/12/27 00:30:13;;;;;;;26.77;17.50;;;0.10;99.90;;;;;;4991829;28;20411;-71
2021/12/27 00:32:40;;;;;;;29.27;19.02;;;0.20;99.90;;;;;;4996560;28;20497;-71
2021/12/27 00:35:08;;;;;;;29.33;18.90;;;0.20;99.90;;;;;;4990561;28;20536;-72
2021/12/27 00:37:34;;;;;;;27.52;18.67;;;0.10;99.90;;;;;;4990216;28;20498;-71
2021/12/27 00:40:01;;;;;;;27.90;18.92;;;0.20;99.90;;;;;;4990091;28;20503;-71
2021/12/27 00:42:27;;;;;;;28.10;18.40;;;0.20;99.90;;;;;;4992326;28;20087;-72
2021/12/27 00:44:53;;;;;;;29.38;18.15;;;0.20;99.90;;;;;;4993590;28;20124;-71
2021/12/27 00:47:18;;;;;;;28.45;18.33;;;0.20;99.90;;;;;;4996064;28;20630;-72
2021/12/27 00:49:44;;;;;;;28.25;18.45;;;0.20;99.90;;;;;;4994701;28;20045;-71
2021/12/27 00:52:10;;;;;;;26.88;18.17;;;0.20;99.90;;;;;;4995388;28;20041;-71
2021/12/27 00:54:35;;;;;;;27.77;18.00;;;0.20;99.90;;;;;;4992544;28;20054;-72
2021/12/27 00:57:01;;;;;;;27.85;18.58;;;0.20;99.90;;;;;;4993130;28;20037;-71
2021/12/27 00:59:27;;;;;;;27.48;19.02;;;0.20;99.90;;;;;;4997190;28;20033;-72
2021/12/27 01:01:53;;;;;;;28.10;19.30;;;0.20;99.90;;;;;;4993581;28;20069;-72
2021/12/27 01:04:19;;;;;;;28.02;18.98;;;0.30;99.90;;;;;;4992734;28;20371;-72
2021/12/27 01:06:44;;;;;;;29.85;19.20;;;0.30;99.90;;;;;;4995318;28;20038;-72
2021/12/27 01:09:16;;;;;;;30.15;19.02;;;0.30;99.90;;;;;;5010054;28;20037;-72
2021/12/27 01:14:39;;;;;;;28.30;18.67;;;0.30;99.90;;;;;;5009387;28;20050;-72
2021/12/27 01:17:05;;;;;;;29.38;19.40;;;0.30;99.90;;;;;;4996056;28;21758;-72
2021/12/27 01:19:31;;;;;;;27.13;19.23;;;0.30;99.90;;;;;;4988074;28;20045;-72
2021/12/27 01:21:56;;;;;;;28.50;19.38;;;0.30;99.90;;;;;;4992627;28;20124;-71
2021/12/27 01:24:22;;;;;;;29.42;19.73;;;0.30;99.90;;;;;;4992964;28;20084;-72
2021/12/27 01:26:47;;;;;;;27.48;19.17;;;0.30;99.90;;;;;;4994725;28;20050;-72
2021/12/27 01:29:13;;;;;;;29.15;19.45;;;0.30;99.90;;;;;;4991475;28;20069;-72
2021/12/27 01:31:39;;;;;;;29.45;19.95;;;0.20;99.90;;;;;;4996633;28;20042;-72
2021/12/27 01:34:04;;;;;;;30.55;19.83;;;0.20;99.90;;;;;;4992374;28;20046;-72
2021/12/27 01:36:32;;;;;;;31.70;20.45;;;0.30;99.90;;;;;;4995554;28;20528;-72
2021/12/27 01:38:59;;;;;;;28.33;18.75;;;0.30;99.90;;;;;;4988345;28;20400;-72
2021/12/27 01:41:25;;;;;;;28.60;19.45;;;0.30;99.90;;;;;;4995349;28;20068;-72
2021/12/27 01:43:52;;;;;;;30.13;20.23;;;0.30;99.90;;;;;;4993722;28;20045;-72
2021/12/27 01:46:21;;;;;;;33.80;21.00;;;0.30;99.90;;;;;;5001074;28;20662;-71
2021/12/27 01:48:55;;;;;;;32.78;21.15;;;0.30;99.90;;;;;;4993222;28;20510;-71
2021/12/27 01:51:23;;;;;;;32.78;20.70;;;0.30;99.90;;;;;;4989073;28;20052;-71
2021/12/27 01:53:49;;;;;;;30.88;20.52;;;0.30;99.90;;;;;;4988441;28;20485;-71
2021/12/27 01:56:17;;;;;;;28.23;19.73;;;0.30;99.90;;;;;;4995605;28;20564;-71
2021/12/27 01:58:44;;;;;;;31.20;20.50;;;0.30;99.90;;;;;;5009144;28;20501;-71
2021/12/27 02:01:12;;;;;;;29.73;20.17;;;0.30;99.90;;;;;;4992437;28;20506;-71
2021/12/27 02:03:41;;;;;;;30.30;20.83;;;0.30;99.90;;;;;;4982773;28;20395;-71
2021/12/27 02:06:09;;;;;;;32.00;21.67;;;0.30;99.90;;;;;;4989994;28;20513;-71
2021/12/27 02:08:37;;;;;;;31.95;20.63;;;0.30;99.90;;;;;;4998611;28;20118;-71
2021/12/27 02:11:04;;;;;;;32.70;21.23;;;0.40;99.90;;;;;;4991620;28;20783;-71
2021/12/27 02:13:30;;;;;;;30.85;20.52;;;0.30;99.90;;;;;;4972109;28;20843;-71
2021/12/27 02:15:55;;;;;;;31.25;20.23;;;0.30;99.90;;;;;;4977874;28;20041;-71
2021/12/27 02:18:21;;;;;;;31.48;20.98;;;0.30;99.90;;;;;;4992948;28;20073;-71
2021/12/27 02:20:47;;;;;;;36.65;21.52;;;0.40;99.90;;;;;;4991300;28;20040;-71
2021/12/27 02:23:16;;;;;;;31.50;20.90;;;0.30;99.90;;;;;;4991764;28;20375;-71
2021/12/27 02:25:44;;;;;;;30.58;21.17;;;0.30;99.90;;;;;;4993643;28;20413;-71
2021/12/27 02:28:11;;;;;;;31.27;20.40;;;0.30;99.90;;;;;;4994812;28;20042;-71
2021/12/27 02:30:39;;;;;;;32.33;21.35;;;0.30;99.90;;;;;;4990506;28;20037;-71
2021/12/27 02:33:06;;;;;;;31.83;21.15;;;0.40;99.90;;;;;;4976523;28;20449;-71
2021/12/27 02:35:40;;;;;;;31.90;21.35;;;0.30;99.90;;;;;;4990135;28;20050;-71
2021/12/27 02:38:09;;;;;;;32.92;22.02;;;0.40;99.90;;;;;;4991276;28;20042;-71
2021/12/27 02:40:37;;;;;;;34.28;21.33;;;0.40;99.90;;;;;;4986416;28;20111;-71
2021/12/27 02:43:12;;;;;;;30.58;21.25;;;0.40;99.90;;;;;;4992267;28;20049;-71
2021/12/27 02:45:47;;;;;;;33.53;22.33;;;0.40;99.90;;;;;;4984911;28;20045;-71
2021/12/27 02:48:14;;;;;;;35.05;21.67;;;0.40;99.90;;;;;;4989589;28;20071;-71
2021/12/27 02:50:41;;;;;;;34.17;22.02;;;0.40;99.90;;;;;;4990800;28;20072;-71
2021/12/27 02:53:08;;;;;;;32.67;22.23;;;0.40;99.90;;;;;;4989893;28;20085;-71
2021/12/27 02:55:35;;;;;;;36.50;23.17;;;0.40;99.90;;;;;;4991779;28;20042;-71
2021/12/27 02:58:01;;;;;;;33.42;21.80;;;0.40;99.90;;;;;;4993051;28;20050;-71
2021/12/27 03:00:35;;;;;;;34.03;22.05;;;0.40;99.90;;;;;;4990457;28;20038;-71
2021/12/27 03:03:00;;;;;;;32.92;21.52;;;0.40;99.90;;;;;;4971555;28;20084;-71
2021/12/27 03:05:28;;;;;;;34.60;22.98;;;0.40;99.90;;;;;;4990655;28;20484;-71
2021/12/27 03:07:56;;;;;;;33.95;22.23;;;0.40;99.90;;;;;;4995219;28;20415;-71
2021/12/27 03:10:28;;;;;;;31.50;21.50;;;0.50;99.90;;;;;;4996924;28;20741;-71
2021/12/27 03:12:55;;;;;;;31.65;21.83;;;0.50;99.90;;;;;;4996364;28;20747;-71
2021/12/27 03:15:23;;;;;;;33.97;21.95;;;0.50;99.90;;;;;;4991125;28;20050;-71
2021/12/27 03:17:51;;;;;;;31.50;21.63;;;0.40;99.90;;;;;;4998773;28;20034;-71
2021/12/27 03:20:19;;;;;;;32.53;21.50;;;0.50;99.90;;;;;;4996134;28;20058;-71
2021/12/27 03:22:45;;;;;;;33.13;22.38;;;0.50;99.90;;;;;;4996593;28;20037;-71
2021/12/27 03:25:20;;;;;;;33.47;22.25;;;0.50;99.90;;;;;;4995790;28;20104;-71
2021/12/27 03:27:47;;;;;;;35.20;22.83;;;0.50;99.90;;;;;;4996130;28;20040;-71
2021/12/27 03:30:16;;;;;;;33.50;22.75;;;0.50;99.90;;;;;;4990963;28;20070;-71
2021/12/27 03:32:42;;;;;;;32.72;22.35;;;0.50;99.90;;;;;;4996373;28;20116;-71
2021/12/27 03:35:14;;;;;;;35.10;22.48;;;0.50;99.90;;;;;;4997765;28;20129;-71
2021/12/27 03:37:46;;;;;;;35.13;23.27;;;0.50;99.90;;;;;;4996282;28;20064;-71
2021/12/27 03:40:13;;;;;;;33.25;22.17;;;0.50;99.90;;;;;;4995324;28;20061;-71
2021/12/27 03:42:39;;;;;;;35.60;22.23;;;0.50;99.90;;;;;;4997091;28;20029;-71
2021/12/27 03:45:07;;;;;;;32.17;22.98;;;0.50;99.90;;;;;;4991947;28;20549;-71
2021/12/27 03:47:33;;;;;;;33.88;22.25;;;0.50;99.90;;;;;;4978239;28;20057;-71
2021/12/27 03:49:59;;;;;;;34.05;22.42;;;0.50;99.90;;;;;;4992447;28;20112;-71
2021/12/27 03:52:24;;;;;;;35.13;22.73;;;0.50;99.90;;;;;;4995726;28;20041;-71
2021/12/27 03:54:50;;;;;;;30.70;21.20;;;0.50;99.90;;;;;;4992168;28;20045;-71
2021/12/27 03:57:16;;;;;;;32.92;21.95;;;0.60;99.90;;;;;;4996166;28;20034;-71
2021/12/27 04:02:09;;;;;;;35.28;22.45;;;0.60;99.90;;;;;;4989375;28;20791;-71
2021/12/27 04:04:35;;;;;;;33.53;21.77;;;0.60;99.90;;;;;;4989692;28;20096;-71
2021/12/27 04:07:01;;;;;;;35.25;22.50;;;0.60;99.90;;;;;;4995939;28;20042;-71
2021/12/27 04:09:27;;;;;;;33.67;22.27;;;0.60;99.90;;;;;;4991720;28;20034;-72
2021/12/27 04:11:53;;;;;;;37.38;23.90;;;0.60;99.90;;;;;;4992549;28;20533;-71
2021/12/27 04:14:19;;;;;;;37.85;23.30;;;0.60;99.90;;;;;;4988233;28;20120;-71
2021/12/27 04:16:46;;;;;;;32.25;22.90;;;0.60;99.90;;;;;;4995066;28;20630;-71
2021/12/27 04:19:12;;;;;;;32.53;23.08;;;0.60;99.90;;;;;;4995507;28;20901;-72
2021/12/27 04:21:38;;;;;;;35.17;23.40;;;0.60;99.90;;;;;;4979261;28;20550;-71
2021/12/27 04:24:04;;;;;;;36.63;23.15;;;0.60;99.90;;;;;;5001352;28;20034;-72
2021/12/27 04:26:30;;;;;;;37.40;23.83;;;0.60;99.90;;;;;;4994206;28;20041;-72
2021/12/27 04:28:55;;;;;;;35.45;23.35;;;0.60;99.90;;;;;;4988901;28;20046;-71
2021/12/27 04:31:21;;;;;;;33.63;23.35;;;0.60;99.90;;;;;;4993783;28;20041;-71
2021/12/27 04:33:47;;;;;;;35.33;24.00;;;0.60;99.90;;;;;;4993057;28;20034;-71
2021/12/27 04:36:12;;;;;;;32.70;23.40;;;0.60;99.90;;;;;;4995792;28;20060;-71
2021/12/27 04:38:38;;;;;;;33.88;23.92;;;0.60;99.90;;;;;;4989408;28;20042;-71
2021/12/27 04:41:06;;;;;;;33.90;23.25;;;0.60;99.90;;;;;;4978141;28;20049;-71
2021/12/27 04:43:32;;;;;;;35.47;23.05;;;0.60;99.90;;;;;;4975360;28;20046;-71
2021/12/27 04:45:58;;;;;;;35.30;22.83;;;0.60;99.90;;;;;;4995142;28;20045;-71
2021/12/27 04:48:25;;;;;;;36.22;23.77;;;0.60;99.90;;;;;;4992547;28;20045;-72
2021/12/27 04:50:52;;;;;;;33.80;23.17;;;0.60;99.90;;;;;;4981323;28;20034;-71
2021/12/27 04:53:18;;;;;;;36.67;23.92;;;0.60;99.90;;;;;;4993414;28;20662;-71
2021/12/27 04:55:46;;;;;;;41.25;24.15;;;0.60;99.90;;;;;;4995024;28;20064;-71
2021/12/27 04:58:17;;;;;;;35.50;24.00;;;0.60;99.90;;;;;;4990010;28;20045;-71
2021/12/27 05:00:44;;;;;;;37.17;23.90;;;0.70;99.90;;;;;;4994655;28;20486;-71
2021/12/27 05:03:10;;;;;;;41.70;24.75;;;0.70;99.90;;;;;;4994200;28;20030;-71
2021/12/27 05:05:37;;;;;;;41.80;24.95;;;0.60;99.90;;;;;;4991528;28;20038;-71
2021/12/27 05:08:03;;;;;;;37.70;24.98;;;0.70;99.90;;;;;;4995779;28;20046;-72
2021/12/27 05:10:30;;;;;;;36.95;24.83;;;0.60;99.90;;;;;;4992644;28;20034;-71
2021/12/27 05:12:55;;;;;;;39.80;24.67;;;0.60;99.90;;;;;;4994550;28;20042;-71
2021/12/27 05:15:21;;;;;;;36.97;24.80;;;0.70;99.90;;;;;;4991747;28;20164;-71
2021/12/27 05:17:47;;;;;;;39.85;25.52;;;0.60;99.90;;;;;;4994289;28;20168;-71
2021/12/27 05:20:13;;;;;;;40.75;25.92;;;0.60;99.90;;;;;;4994664;28;20425;-71
2021/12/27 05:22:40;;;;;;;38.03;25.40;;;0.60;99.90;;;;;;5010487;28;20042;-72
2021/12/27 05:25:07;;;;;;;40.35;25.75;;;0.70;99.90;;;;;;5000079;28;20045;-71
2021/12/27 05:27:33;;;;;;;42.88;26.33;;;0.70;99.90;;;;;;4986351;28;20042;-71
2021/12/27 05:29:59;;;;;;;41.55;25.92;;;0.60;99.90;;;;;;4989106;28;20041;-71
2021/12/27 05:32:25;;;;;;;38.85;25.98;;;0.60;99.90;;;;;;4991177;28;20045;-71
2021/12/27 05:34:50;;;;;;;41.50;27.08;;;0.60;99.90;;;;;;4995526;28;20079;-71
2021/12/27 05:37:16;;;;;;;42.25;26.48;;;0.60;99.90;;;;;;4999373;28;20132;-71
2021/12/27 05:39:42;;;;;;;42.13;26.60;;;0.60;99.90;;;;;;4988932;28;20054;-71
2021/12/27 05:42:08;;;;;;;44.15;27.00;;;0.60;99.90;;;;;;4988046;28;20046;-72
2021/12/27 05:44:34;;;;;;;44.03;27.00;;;0.60;99.90;;;;;;4992932;28;20038;-72
2021/12/27 05:47:00;;;;;;;41.05;26.10;;;0.60;99.90;;;;;;4991516;28;20046;-72
2021/12/27 05:49:26;;;;;;;42.58;26.10;;;0.60;99.90;;;;;;4995899;28;20033;-71
2021/12/27 05:51:52;;;;;;;45.60;27.52;;;0.60;99.90;;;;;;4991910;28;20042;-72
2021/12/27 05:54:20;;;;;;;38.53;26.20;;;0.60;99.90;;;;;;4992694;28;20046;-72
2021/12/27 05:56:47;;;;;;;47.72;27.92;;;0.60;99.90;;;;;;4988789;28;20109;-72
2021/12/27 05:59:13;;;;;;;43.63;27.67;;;0.70;99.90;;;;;;4988734;28;20040;-72
2021/12/27 06:01:40;;;;;;;45.95;27.63;;;0.70;99.90;;;;;;4989094;28;20485;-72
2021/12/27 06:04:06;;;;;;;46.78;30.02;;;0.60;99.90;;;;;;4986492;28;20955;-72
2021/12/27 06:06:31;;;;;;;49.22;29.23;;;0.70;99.90;;;;;;4987143;28;20053;-71
2021/12/27 06:08:57;;;;;;;49.47;29.08;;;0.60;99.90;;;;;;4993156;28;20037;-72
2021/12/27 06:11:23;;;;;;;48.75;29.15;;;0.60;99.90;;;;;;4991798;28;20034;-72
2021/12/27 06:13:49;;;;;;;47.83;28.55;;;0.70;99.90;;;;;;5002077;28;20148;-72
2021/12/27 06:16:14;;;;;;;52.17;30.73;;;0.70;99.90;;;;;;4986028;28;20037;-72
2021/12/27 06:18:40;;;;;;;48.97;30.20;;;0.70;99.90;;;;;;4988513;28;20034;-72
2021/12/27 06:21:06;;;;;;;54.63;30.48;;;0.70;99.90;;;;;;4991869;28;20042;-72
2021/12/27 06:23:33;;;;;;;53.42;30.55;;;0.70;99.90;;;;;;4992319;28;20041;-72
2021/12/27 06:25:59;;;;;;;53.00;31.70;;;0.70;99.90;;;;;;4988018;28;20042;-72
2021/12/27 06:28:24;;;;;;;47.05;29.02;;;0.70;99.90;;;;;;4989592;28;20045;-72
2021/12/27 06:30:50;;;;;;;55.17;30.88;;;0.70;99.90;;;;;;4989181;28;20034;-72
2021/12/27 06:33:16;;;;;;;58.88;32.22;;;0.70;99.90;;;;;;4990799;28;20037;-72
2021/12/27 06:35:42;;;;;;;53.65;30.75;;;0.70;99.90;;;;;;4992272;28;20041;-72
2021/12/27 06:38:08;;;;;;;57.53;31.30;;;0.70;99.90;;;;;;4995028;28;20034;-72
2021/12/27 06:40:35;;;;;;;57.30;31.15;;;0.70;99.90;;;;;;4988427;28;20042;-72
2021/12/27 06:43:01;;;;;;;55.90;30.35;;;0.80;99.90;;;;;;4990429;28;20041;-72
2021/12/27 06:45:27;;;;;;;61.83;31.25;;;0.80;99.90;;;;;;4990887;28;20053;-72
2021/12/27 06:47:53;;;;;;;58.67;31.42;;;0.80;99.90;;;;;;4996713;28;20038;-72
2021/12/27 06:50:19;;;;;;;59.28;31.63;;;0.80;99.90;;;;;;4994896;28;20044;-72
2021/12/27 06:52:45;;;;;;;55.50;31.30;;;0.80;99.90;;;;;;4988917;28;20050;-72
2021/12/27 06:55:11;;;;;;;57.47;31.05;;;0.80;99.90;;;;;;4993211;28;20073;-72
2021/12/27 06:57:38;;;;;;;53.78;31.33;;;0.80;99.90;;;;;;4990624;28;20045;-72
2021/12/27 07:00:08;;;;;;;58.45;31.25;;;0.80;99.90;;;;;;4993986;28;20041;-72
2021/12/27 07:02:34;;;;;;;55.10;30.77;;;0.80;99.90;;;;;;4992672;28;20077;-72
2021/12/27 07:05:00;;;;;;;59.20;31.65;;;0.80;99.90;;;;;;4994209;28;20505;-72
2021/12/27 07:07:25;;;;;;;57.38;31.70;;;0.80;99.90;;;;;;4989230;28;20506;-72
2021/12/27 07:09:51;;;;;;;55.35;31.65;;;0.80;99.90;;;;;;4989199;28;20128;-72
2021/12/27 07:12:17;;;;;;;56.75;31.10;;;0.80;99.90;;;;;;4992211;28;20052;-72
2021/12/27 07:14:43;;;;;;;53.03;29.35;;;0.80;99.90;;;;;;4995448;28;20545;-72
2021/12/27 07:17:09;;;;;;;60.88;31.63;;;0.80;99.90;;;;;;4990209;28;20041;-72
2021/12/27 07:19:35;;;;;;;57.72;30.70;;;0.80;99.90;;;;;;4988779;28;20045;-72
2021/12/27 07:22:01;;;;;;;55.10;30.52;;;0.90;99.90;;;;;;4993947;28;20490;-72
2021/12/27 07:24:27;;;;;;;58.50;30.17;;;0.80;99.90;;;;;;4975150;28;20553;-72
2021/12/27 07:26:52;;;;;;;58.28;30.95;;;0.90;99.90;;;;;;4984470;28;20528;-72
2021/12/27 07:29:19;;;;;;;66.13;32.05;;;0.90;99.90;;;;;;4989377;28;20498;-72
2021/12/27 07:31:45;;;;;;;67.18;31.98;;;0.90;99.90;;;;;;4990024;28;20096;-72
2021/12/27 07:34:12;;;;;;;60.95;31.83;;;0.80;99.90;;;;;;4992833;28;20042;-72
2021/12/27 07:36:38;;;;;;;67.40;32.00;;;0.90;99.90;;;;;;4991184;28;20077;-72
2021/12/27 07:39:06;;;;;;;67.32;32.47;;;0.90;99.90;;;;;;4989732;28;20132;-72
2021/12/27 07:41:31;;;;;;;70.40;32.30;;;0.90;99.90;;;;;;4992432;28;20128;-72
2021/12/27 07:43:57;;;;;;;66.65;32.85;;;0.90;99.90;;;;;;5005277;28;20129;-71
2021/12/27 07:46:24;;;;;;;66.25;31.48;;;0.90;99.90;;;;;;4988138;28;20125;-73
2021/12/27 07:48:50;;;;;;;72.40;33.85;;;0.90;99.90;;;;;;4987492;28;20042;-73
2021/12/27 07:51:16;;;;;;;73.97;33.22;;;0.90;99.90;;;;;;4994794;28;20072;-73
2021/12/27 07:53:42;;;;;;;77.32;33.50;;;0.90;99.90;;;;;;4985689;28;20097;-73
2021/12/27 07:56:08;;;;;;;74.50;32.15;;;0.90;99.90;;;;;;4988580;28;21574;-73
2021/12/27 07:58:35;;;;;;;81.75;32.97;;;0.90;99.90;;;;;;4992156;28;20052;-73
2021/12/27 08:01:00;;;;;;;144.43;79.63;;;1.00;99.90;;;;;;4989955;28;20414;-73
2021/12/27 08:03:26;;;;;;;85.85;34.28;;;1.00;99.90;;;;;;4989586;28;20038;-73
2021/12/27 08:05:51;;;;;;;86.68;34.10;;;1.00;99.90;;;;;;4987270;28;20405;-73
2021/12/27 08:08:18;;;;;;;95.45;35.95;;;1.00;99.90;;;;;;4989035;28;20050;-73
2021/12/27 08:10:44;;;;;;;92.78;34.72;;;1.00;99.90;;;;;;4980245;28;20041;-73
2021/12/27 08:13:11;;;;;;;103.63;36.58;;;1.00;99.90;;;;;;4993036;28;20128;-72
2021/12/27 08:15:37;;;;;;;101.90;37.42;;;1.00;99.90;;;;;;4986572;28;20053;-72
2021/12/27 08:18:02;;;;;;;96.15;36.45;;;1.00;99.90;;;;;;4982719;28;20121;-73
2021/12/27 08:20:28;;;;;;;92.13;34.47;;;1.00;99.90;;;;;;4991824;28;20480;-73
2021/12/27 08:22:54;;;;;;;98.68;34.40;;;1.00;99.90;;;;;;4993431;28;20146;-73
2021/12/27 08:25:20;;;;;;;111.72;37.13;;;1.00;99.90;;;;;;4992527;28;20446;-73
2021/12/27 08:27:46;;;;;;;100.13;35.53;;;1.10;99.90;;;;;;4969891;28;20442;-73
2021/12/27 08:30:12;;;;;;;108.47;37.42;;;1.10;99.90;;;;;;4984048;28;20061;-73
2021/12/27 08:32:41;;;;;;;106.90;36.60;;;1.10;99.90;;;;;;4986758;28;20041;-72
2021/12/27 08:35:09;;;;;;;102.60;36.10;;;1.10;99.90;;;;;;4989086;28;20042;-73
2021/12/27 08:37:34;;;;;;;113.93;38.75;;;1.10;99.90;;;;;;4987107;28;20084;-73
2021/12/27 08:40:00;;;;;;;113.75;37.78;;;1.10;99.90;;;;;;4987645;28;20045;-73
2021/12/27 08:42:26;;;;;;;111.05;36.70;;;1.10;99.90;;;;;;4990288;28;20115;-73
2021/12/27 08:44:52;;;;;;;128.07;39.42;;;1.10;99.90;;;;;;4988955;28;20046;-73
2021/12/27 08:47:19;;;;;;;105.70;37.42;;;1.20;99.90;;;;;;4986189;28;20121;-74
2021/12/27 08:49:45;;;;;;;137.80;39.13;;;1.20;99.90;;;;;;4993373;28;20026;-73
2021/12/27 08:52:11;;;;;;;119.97;38.92;;;1.20;99.90;;;;;;4990105;28;20046;-73
2021/12/27 08:54:37;;;;;;;121.55;40.17;;;1.20;99.90;;;;;;4988803;28;20060;-73
2021/12/27 08:57:05;;;;;;;122.80;38.53;;;1.20;99.90;;;;;;4987366;28;20034;-73
2021/12/27 08:59:32;;;;;;;140.30;39.80;;;1.20;99.90;;;;;;4985729;28;20124;-74
2021/12/27 09:01:58;;;;;;;124.57;39.88;;;1.20;99.90;;;;;;4989780;28;20451;-74
2021/12/27 09:04:24;;;;;;;127.50;39.83;;;1.30;99.90;;;;;;4986648;28;20045;-74
2021/12/27 09:06:50;;;;;;;129.27;40.95;;;1.30;99.90;;;;;;4984894;28;20060;-74
2021/12/27 09:09:16;;;;;;;138.60;40.97;;;1.30;99.90;;;;;;4986926;28;20046;-74
2021/12/27 09:11:43;;;;;;;141.77;41.17;;;1.30;99.90;;;;;;4990259;28;20042;-74
2021/12/27 09:14:09;;;;;;;131.70;40.40;;;1.30;99.90;;;;;;4984591;28;20984;-73
2021/12/27 09:16:35;;;;;;;158.65;40.05;;;1.40;99.90;;;;;;4982875;28;20038;-74
2021/12/27 09:19:00;;;;;;;132.45;40.53;;;1.40;99.90;;;;;;4990150;28;20397;-74
2021/12/27 09:21:26;;;;;;;145.90;40.58;;;1.40;99.90;;;;;;4988655;28;20065;-74
2021/12/27 09:23:52;;;;;;;153.70;40.78;;;1.40;99.90;;;;;;4988323;28;20096;-74
2021/12/27 09:26:18;;;;;;;150.70;41.33;;;1.50;99.90;;;;;;4985498;28;20093;-74
2021/12/27 09:28:44;;;;;;;164.73;41.58;;;1.40;99.90;;;;;;4988982;28;20037;-74
2021/12/27 09:31:10;;;;;;;160.15;43.03;;;1.50;99.90;;;;;;4987716;28;20042;-73
2021/12/27 09:33:35;;;;;;;142.95;41.17;;;1.50;99.90;;;;;;4987295;28;22936;-73
2021/12/27 09:36:01;;;;;;;182.18;42.38;;;1.50;99.90;;;;;;4989527;28;20058;-74
2021/12/27 09:38:27;;;;;;;162.27;42.42;;;1.50;99.90;;;;;;4990386;28;20107;-73
2021/12/27 09:40:53;;;;;;;158.15;43.15;;;1.50;99.90;;;;;;4973951;28;20038;-73
2021/12/27 09:43:18;;;;;;;162.23;41.72;;;1.60;99.90;;;;;;4996376;28;20446;-73
2021/12/27 09:45:44;;;;;;;157.43;42.65;;;1.60;99.90;;;;;;5000548;28;20516;-73
2021/12/27 09:48:10;;;;;;;156.05;42.72;;;1.60;99.90;;;;;;5010738;28;20045;-73
2021/12/27 09:50:42;;;;;;;154.27;41.55;;;1.60;99.90;;;;;;4996732;28;20569;-73
2021/12/27 09:53:09;;;;;;;143.63;41.75;;;1.70;99.90;;;;;;5001446;28;20401;-73
2021/12/27 09:55:35;;;;;;;148.63;40.72;;;1.70;99.90;;;;;;4994647;28;20120;-73
2021/12/27 09:58:01;;;;;;;136.93;40.88;;;1.70;99.90;;;;;;5002499;28;20040;-74
2021/12/27 10:00:28;;;;;;;173.82;43.45;;;1.80;99.90;;;;;;4998249;28;20489;-73
2021/12/27 10:02:55;;;;;;;160.75;43.03;;;1.80;99.90;;;;;;4994068;28;20084;-73
2021/12/27 10:05:23;;;;;;;187.75;43.75;;;1.80;99.90;;;;;;4994564;28;20044;-73
2021/12/27 10:07:50;;;;;;;165.50;43.30;;;1.80;99.90;;;;;;4999609;28;20053;-73
2021/12/27 10:10:17;;;;;;;163.43;42.20;;;1.90;99.90;;;;;;4989007;28;20030;-74
2021/12/27 10:12:43;;;;;;;193.15;44.72;;;1.90;99.90;;;;;;5004567;28;20128;-73
2021/12/27 10:15:11;;;;;;;149.43;41.60;;;1.90;99.90;;;;;;4999820;28;20442;-73
2021/12/27 10:17:37;;;;;;;156.77;41.67;;;1.90;99.90;;;;;;4998666;28;20038;-73
2021/12/27 10:20:09;;;;;;;175.20;42.65;;;1.90;99.90;;;;;;4994496;28;20052;-73
2021/12/27 10:22:40;;;;;;;151.00;39.67;;;1.90;99.90;;;;;;4991130;28;20065;-74
2021/12/27 10:25:35;;;;;;;191.10;41.30;;;1.90;99.90;;;;;;5003387;28;20036;-73
2021/12/27 10:28:02;;;;;;;147.77;40.65;;;2.00;99.90;;;;;;4983396;28;20045;-73
2021/12/27 10:30:36;;;;;;;155.23;40.67;;;2.00;99.90;;;;;;5002167;28;20460;-73
2021/12/27 10:33:21;;;;;;;193.77;44.60;;;2.00;99.90;;;;;;4996258;28;20061;-73
2021/12/27 10:35:50;;;;;;;156.40;41.72;;;2.00;99.90;;;;;;4978465;28;20048;-73
2021/12/27 10:38:36;;;;;;;173.35;43.55;;;2.10;99.90;;;;;;5010886;28;20136;-73
2021/12/27 10:41:10;;;;;;;163.07;41.47;;;2.10;99.90;;;;;;4996245;28;20076;-73
2021/12/27 10:43:45;;;;;;;162.45;44.10;;;2.20;99.90;;;;;;4976429;28;20452;-73
2021/12/27 10:46:14;;;;;;;172.25;42.80;;;2.20;99.90;;;;;;4997952;28;20070;-73
2021/12/27 10:48:46;;;;;;;208.18;44.53;;;2.30;99.90;;;;;;4989896;28;20103;-72
2021/12/27 10:51:13;;;;;;;185.13;43.75;;;2.30;99.90;;;;;;4993858;28;20044;-73
2021/12/27 10:53:51;;;;;;;177.75;44.55;;;2.30;99.90;;;;;;5006910;28;20091;-73
2021/12/27 10:56:19;;;;;;;185.10;44.58;;;2.30;99.90;;;;;;4978825;28;20037;-73
2021/12/27 10:58:48;;;;;;;172.93;42.72;;;2.30;99.90;;;;;;5011564;28;20034;-72
2021/12/27 11:01:18;;;;;;;168.80;41.40;;;2.40;99.90;;;;;;4984391;28;20033;-72
2021/12/27 11:03:45;;;;;;;157.20;41.33;;;2.40;99.90;;;;;;4990690;28;20045;-72
2021/12/27 11:06:14;;;;;;;169.57;41.65;;;2.40;99.90;;;;;;4990194;28;20100;-72
2021/12/27 11:08:45;;;;;;;169.50;42.55;;;2.40;99.90;;;;;;4981981;28;20074;-72
2021/12/27 11:11:14;;;;;;;159.88;42.17;;;2.40;99.90;;;;;;5003856;28;20073;-72
2021/12/27 11:13:41;;;;;;;161.77;40.85;;;2.40;99.90;;;;;;4991918;28;20099;-73
2021/12/27 11:16:07;;;;;;;177.20;43.00;;;2.40;99.90;;;;;;4998863;28;20050;-72
2021/12/27 11:18:34;;;;;;;169.85;44.38;;;2.40;99.90;;;;;;4990584;28;20045;-72
2021/12/27 11:21:11;;;;;;;183.68;43.17;;;2.40;99.90;;;;;;4993844;28;20042;-72
2021/12/27 11:23:37;;;;;;;198.30;46.42;;;2.50;99.90;;;;;;4990531;28;20048;-73
2021/12/27 11:26:07;;;;;;;161.05;41.00;;;2.50;99.90;;;;;;4998769;28;20037;-72
2021/12/27 11:28:36;;;;;;;209.43;44.05;;;2.50;99.90;;;;;;5002462;28;20034;-72
2021/12/27 11:31:13;;;;;;;209.65;45.50;;;2.50;99.90;;;;;;4989341;28;20129;-72
2021/12/27 11:33:53;;;;;;;221.25;43.72;;;2.50;99.90;;;;;;5000356;28;20091;-72
2021/12/27 11:36:24;;;;;;;194.23;46.75;;;2.60;99.90;;;;;;4975391;28;20045;-73
2021/12/27 11:38:51;;;;;;;220.07;47.38;;;2.50;99.90;;;;;;5011387;28;20096;-72
2021/12/27 11:41:23;;;;;;;207.07;45.75;;;2.60;99.90;;;;;;4995765;28;20088;-72
2021/12/27 11:43:56;;;;;;;169.75;44.47;;;2.60;99.90;;;;;;4996838;28;20049;-71
2021/12/27 11:46:29;;;;;;;193.48;44.83;;;2.60;99.90;;;;;;4992380;28;20049;-72
2021/12/27 11:48:58;;;;;;;184.35;43.90;;;2.70;99.90;;;;;;4991871;28;20034;-72
2021/12/27 11:51:53;;;;;;;195.05;43.95;;;2.70;99.90;;;;;;5005107;28;20045;-72
2021/12/27 11:54:27;;;;;;;198.32;45.30;;;2.70;99.90;;;;;;4999077;28;20054;-72
2021/12/27 11:56:52;;;;;;;188.85;47.00;;;2.70;99.90;;;;;;5005758;28;20053;-72
2021/12/27 11:59:35;;;;;;;280.35;72.10;;;2.80;99.90;;;;;;5003365;28;20046;-72
2021/12/27 12:02:22;;;;;;;217.50;47.53;;;2.80;99.90;;;;;;4991467;28;20414;-72
2021/12/27 12:04:58;;;;;;;230.75;47.88;;;2.80;99.90;;;;;;4995610;28;20104;-72
2021/12/27 12:07:32;;;;;;;221.25;47.85;;;2.90;99.90;;;;;;4980113;28;20498;-72
2021/12/27 12:10:14;;;;;;;188.55;46.70;;;2.90;99.90;;;;;;5007693;28;20124;-75
2021/12/27 12:12:40;;;;;;;171.13;44.70;;;2.90;99.90;;;;;;5000124;28;20044;-73
2021/12/27 12:15:08;;;;;;;173.88;44.10;;;2.90;99.90;;;;;;4982866;28;20026;-73
2021/12/27 12:17:39;;;;;;;189.88;46.75;;;3.00;99.90;;;;;;5002108;28;20038;-72
2021/12/27 12:20:24;;;;;;;192.48;46.67;;;3.00;99.90;;;;;;4996403;28;20034;-73
2021/12/27 12:23:04;;;;;;;183.75;46.88;;;3.10;99.90;;;;;;4989344;28;20042;-72
2021/12/27 12:25:30;;;;;;;193.27;45.22;;;3.00;99.90;;;;;;5009429;28;20034;-72
2021/12/27 12:28:01;;;;;;;182.93;44.85;;;3.00;99.90;;;;;;5011781;28;20042;-73
2021/12/27 12:30:36;;;;;;;192.27;44.40;;;3.00;99.90;;;;;;4994501;28;20104;-72
2021/12/27 12:33:06;;;;;;;166.93;44.25;;;3.00;99.90;;;;;;5004146;28;20034;-72
2021/12/27 12:35:49;;;;;;;162.07;44.83;;;3.00;99.90;;;;;;4974394;28;20061;-72
2021/12/27 12:38:25;;;;;;;160.50;44.50;;;3.00;99.90;;;;;;4991593;28;20094;-72
2021/12/27 12:41:10;;;;;;;145.07;43.58;;;3.00;99.90;;;;;;4996900;28;20486;-73